Time;durP1;ratioP1;P1;durP2;ratioP2;P2;SDS_P1;SDS_P2;PMS_P1;PMS_P2;Temp;Humidity;BMP_temperature;BMP_pressure;BME280_temperature;BME280_humidity;BME280_pressure;Samples;Min_cycle;Max_cycle;Signal;HPM_P1;HPM_P2
2023/06/08 00:01:44;;;;;;;19.75;12.75;;;12.50;82.40;;;;;;5117423;27;20126;-80
2023/06/08 00:04:12;;;;;;;18.77;13.00;;;12.50;82.40;;;;;;5100193;27;20104;-80
2023/06/08 00:06:40;;;;;;;22.77;12.70;;;12.50;82.50;;;;;;5134605;27;20368;-81
2023/06/08 00:09:06;;;;;;;17.83;12.05;;;12.50;82.70;;;;;;5100739;27;20399;-81
2023/06/08 00:11:32;;;;;;;17.05;12.75;;;12.50;82.70;;;;;;5117521;27;20035;-82
2023/06/08 00:13:59;;;;;;;19.60;12.48;;;12.50;82.70;;;;;;5100258;27;20068;-82
2023/06/08 00:16:27;;;;;;;20.15;13.02;;;12.60;82.80;;;;;;5099909;27;20043;-81
2023/06/08 00:19:00;;;;;;;23.63;16.23;;;12.60;82.70;;;;;;5100131;27;20545;-81
2023/06/08 00:21:29;;;;;;;15.63;10.55;;;12.60;82.70;;;;;;5116492;27;20031;-81
2023/06/08 00:23:57;;;;;;;21.27;13.60;;;12.60;82.90;;;;;;5116793;27;20043;-79
2023/06/08 00:26:23;;;;;;;26.83;15.15;;;12.60;82.70;;;;;;5116935;27;20050;-79
2023/06/08 00:28:48;;;;;;;18.33;13.98;;;12.60;82.70;;;;;;5116808;27;20524;-79
2023/06/08 00:31:19;;;;;;;18.10;9.25;;;12.60;82.80;;;;;;5116385;27;20035;-80
2023/06/08 00:33:45;;;;;;;19.98;9.85;;;12.60;83.00;;;;;;5116499;27;20086;-80
2023/06/08 00:36:12;;;;;;;13.50;9.30;;;12.60;82.90;;;;;;5115951;27;20071;-80
2023/06/08 00:38:38;;;;;;;19.92;11.20;;;12.60;83.00;;;;;;5099729;27;20103;-80
2023/06/08 00:41:05;;;;;;;22.02;11.00;;;12.60;82.80;;;;;;5099374;27;20039;-80
2023/06/08 00:43:32;;;;;;;17.52;10.32;;;12.60;82.80;;;;;;5133278;27;20596;-80
2023/06/08 00:45:58;;;;;;;15.32;8.77;;;12.60;83.00;;;;;;5116295;27;20035;-80
2023/06/08 00:48:25;;;;;;;19.08;10.13;;;12.60;82.80;;;;;;5099577;27;20095;-80
2023/06/08 00:50:53;;;;;;;22.30;11.70;;;12.60;82.70;;;;;;5099718;27;20436;-80
2023/06/08 00:53:20;;;;;;;20.27;12.15;;;12.60;82.70;;;;;;5112397;28;20040;-79
2023/06/08 00:55:50;;;;;;;18.40;10.63;;;12.50;82.90;;;;;;5095841;28;20050;-79
2023/06/08 00:58:17;;;;;;;20.67;12.18;;;12.50;83.00;;;;;;5113038;28;20071;-79
2023/06/08 01:00:46;;;;;;;17.90;10.38;;;12.50;83.00;;;;;;5113011;28;20043;-79
2023/06/08 01:03:15;;;;;;;17.77;9.68;;;12.50;83.00;;;;;;5112783;28;20039;-80
2023/06/08 01:05:44;;;;;;;15.45;9.30;;;12.50;83.00;;;;;;5113782;28;20054;-80
2023/06/08 01:08:28;;;;;;;20.15;9.95;;;12.50;83.00;;;;;;5100435;28;20039;-80
2023/06/08 01:11:02;;;;;;;17.10;9.40;;;12.50;83.00;;;;;;5116980;28;20130;-79
2023/06/08 01:13:38;;;;;;;15.07;9.52;;;12.60;82.90;;;;;;5099930;28;20039;-79
2023/06/08 01:16:07;;;;;;;19.08;10.80;;;12.50;83.00;;;;;;5116409;28;20130;-80
2023/06/08 01:18:38;;;;;;;15.80;10.75;;;12.50;83.00;;;;;;5116902;28;20047;-80
2023/06/08 01:21:14;;;;;;;15.90;9.93;;;12.60;83.10;;;;;;5099710;28;20429;-80
2023/06/08 01:24:02;;;;;;;18.00;10.80;;;12.50;83.00;;;;;;5099742;28;20043;-80
2023/06/08 01:26:31;;;;;;;22.48;12.88;;;12.50;83.00;;;;;;5116622;28;20126;-79
2023/06/08 01:28:57;;;;;;;23.90;11.55;;;12.50;83.20;;;;;;5083169;28;20040;-80
2023/06/08 01:31:22;;;;;;;17.75;10.57;;;12.50;83.20;;;;;;5099509;28;20100;-80
2023/06/08 01:33:49;;;;;;;19.95;12.20;;;12.50;83.20;;;;;;5099503;28;20460;-81
2023/06/08 01:36:24;;;;;;;24.67;13.07;;;12.50;83.30;;;;;;5099529;28;20042;-79
2023/06/08 01:39:26;;;;;;;16.42;10.88;;;12.50;83.20;;;;;;5099634;28;20043;-79
2023/06/08 01:41:55;;;;;;;17.60;10.48;;;12.50;83.20;;;;;;5116307;28;20042;-80
2023/06/08 01:44:23;;;;;;;20.85;12.13;;;12.50;83.10;;;;;;5116216;28;20104;-80
2023/06/08 01:46:55;;;;;;;22.38;11.23;;;12.50;83.10;;;;;;5116325;28;20369;-79
2023/06/08 01:49:22;;;;;;;22.55;11.68;;;12.50;83.20;;;;;;5099206;28;20492;-80
2023/06/08 01:51:48;;;;;;;17.30;10.00;;;12.50;83.30;;;;;;5099468;28;20040;-80
2023/06/08 01:54:15;;;;;;;13.45;8.93;;;12.50;83.40;;;;;;5116093;28;20116;-80
2023/06/08 01:56:41;;;;;;;26.70;12.45;;;12.50;83.60;;;;;;5107968;27;20043;-80
2023/06/08 01:59:06;;;;;;;20.05;11.60;;;12.60;83.50;;;;;;5102966;27;20068;-80
2023/06/08 02:01:32;;;;;;;19.65;9.32;;;12.50;83.60;;;;;;5102575;27;20038;-81
2023/06/08 02:03:58;;;;;;;17.17;10.07;;;12.50;83.80;;;;;;5086031;27;20035;-80
2023/06/08 02:06:23;;;;;;;19.25;10.70;;;12.50;83.70;;;;;;5119245;27;20440;-80
2023/06/08 02:08:49;;;;;;;18.30;11.35;;;12.50;83.60;;;;;;5119407;27;20039;-80
2023/06/08 02:11:15;;;;;;;19.65;11.77;;;12.50;83.60;;;;;;5102120;27;20062;-80
2023/06/08 02:13:42;;;;;;;18.08;11.32;;;12.50;83.70;;;;;;5118758;27;20087;-80
2023/06/08 02:16:08;;;;;;;26.30;12.35;;;12.50;83.70;;;;;;5101702;27;20035;-81
2023/06/08 02:18:37;;;;;;;22.10;11.50;;;12.50;83.90;;;;;;5119270;27;20062;-80
2023/06/08 02:21:04;;;;;;;22.27;12.07;;;12.60;83.90;;;;;;5119274;27;20039;-79
2023/06/08 02:23:30;;;;;;;17.98;10.95;;;12.50;83.90;;;;;;5102392;27;20130;-80
2023/06/08 02:25:55;;;;;;;21.55;11.35;;;12.50;84.00;;;;;;5136002;27;20490;-80
2023/06/08 02:28:21;;;;;;;15.20;9.95;;;12.60;84.10;;;;;;5101903;27;20046;-80
2023/06/08 02:30:47;;;;;;;23.50;11.70;;;12.50;84.00;;;;;;5097953;28;20036;-80
2023/06/08 02:33:16;;;;;;;15.32;10.73;;;12.50;84.10;;;;;;5064853;28;20096;-80
2023/06/08 02:35:42;;;;;;;21.52;11.80;;;12.60;84.00;;;;;;5098170;28;20103;-80
2023/06/08 02:38:08;;;;;;;19.98;11.23;;;12.60;84.00;;;;;;5098212;28;20039;-80
2023/06/08 02:40:35;;;;;;;22.30;12.57;;;12.60;84.10;;;;;;5098155;28;20032;-80
2023/06/08 02:43:00;;;;;;;14.02;9.57;;;12.60;84.00;;;;;;5114935;28;20043;-80
2023/06/08 02:45:26;;;;;;;22.15;12.48;;;12.60;84.00;;;;;;5115149;28;20047;-80
2023/06/08 02:47:52;;;;;;;15.35;10.25;;;12.60;84.10;;;;;;5090472;27;20490;-80
2023/06/08 02:50:18;;;;;;;21.15;11.10;;;12.60;84.10;;;;;;5103056;27;20035;-80
2023/06/08 02:52:44;;;;;;;17.75;11.52;;;12.60;84.10;;;;;;5120370;27;20043;-80
2023/06/08 02:55:09;;;;;;;20.73;9.50;;;12.60;84.10;;;;;;5119969;27;20046;-79
2023/06/08 02:57:36;;;;;;;17.20;10.63;;;12.60;84.50;;;;;;5119979;27;20038;-79
2023/06/08 03:00:07;;;;;;;18.25;10.48;;;12.60;84.20;;;;;;5119893;27;20049;-79
2023/06/08 03:02:33;;;;;;;16.23;9.60;;;12.60;84.10;;;;;;5120228;27;20372;-79
2023/06/08 03:05:02;;;;;;;19.35;10.30;;;12.50;84.40;;;;;;5119652;27;20043;-79
2023/06/08 03:07:28;;;;;;;22.23;11.15;;;12.50;84.60;;;;;;5136304;27;20502;-80
2023/06/08 03:09:54;;;;;;;19.90;10.35;;;12.50;84.30;;;;;;5119215;27;20039;-79
2023/06/08 03:12:20;;;;;;;18.38;10.05;;;12.50;84.50;;;;;;5119295;27;20041;-79
2023/06/08 03:14:48;;;;;;;15.98;10.30;;;12.50;84.60;;;;;;5101775;27;20046;-79
2023/06/08 03:17:17;;;;;;;16.75;9.48;;;12.50;84.60;;;;;;5102528;27;20054;-79
2023/06/08 03:19:43;;;;;;;16.38;10.25;;;12.50;84.80;;;;;;5117597;27;20498;-80
2023/06/08 03:22:09;;;;;;;16.20;10.35;;;12.50;85.00;;;;;;5134482;27;20043;-80
2023/06/08 03:24:36;;;;;;;19.33;11.48;;;12.50;84.70;;;;;;5118036;27;20039;-80
2023/06/08 03:27:03;;;;;;;18.30;10.68;;;12.50;84.80;;;;;;5118012;27;20107;-80
2023/06/08 03:29:30;;;;;;;18.02;11.10;;;12.60;84.70;;;;;;5116888;27;20145;-80
2023/06/08 03:31:56;;;;;;;15.52;11.30;;;12.50;85.00;;;;;;5134613;27;20113;-80
2023/06/08 03:34:25;;;;;;;22.88;11.50;;;12.60;84.90;;;;;;5117594;27;20050;-79
2023/06/08 03:36:54;;;;;;;17.52;10.82;;;12.60;84.80;;;;;;5134454;27;20053;-79
2023/06/08 03:39:21;;;;;;;23.50;12.38;;;12.60;85.00;;;;;;5117494;27;20031;-80
2023/06/08 03:41:46;;;;;;;19.00;11.70;;;12.60;85.10;;;;;;5100639;27;20393;-80
2023/06/08 03:44:12;;;;;;;24.15;12.90;;;12.60;85.30;;;;;;5100312;27;20039;-80
2023/06/08 03:46:38;;;;;;;18.33;11.25;;;12.60;85.20;;;;;;5117407;27;20135;-80
2023/06/08 03:49:03;;;;;;;17.50;10.05;;;12.60;85.00;;;;;;5117390;27;20035;-80
2023/06/08 03:51:30;;;;;;;14.93;9.90;;;12.60;85.00;;;;;;5100489;27;20043;-80
2023/06/08 03:53:56;;;;;;;18.60;9.82;;;12.60;84.90;;;;;;5116718;27;20070;-80
2023/06/08 03:56:22;;;;;;;18.75;11.23;;;12.70;84.90;;;;;;5117178;27;20071;-80
2023/06/08 03:58:48;;;;;;;19.10;9.80;;;12.70;84.70;;;;;;5118531;27;20035;-80
2023/06/08 04:01:14;;;;;;;15.52;9.85;;;12.70;84.80;;;;;;5100944;27;20038;-80
2023/06/08 04:03:41;;;;;;;16.75;9.07;;;12.70;84.80;;;;;;5117495;27;20040;-80
2023/06/08 04:06:08;;;;;;;18.13;9.02;;;12.70;84.70;;;;;;5117520;27;20066;-80
2023/06/08 04:08:40;;;;;;;16.20;9.60;;;12.80;84.70;;;;;;5117476;27;20475;-80
2023/06/08 04:11:08;;;;;;;23.13;9.10;;;12.80;84.60;;;;;;5117910;27;20027;-81
2023/06/08 04:13:36;;;;;;;16.35;9.57;;;12.80;84.50;;;;;;5100933;27;20391;-80
2023/06/08 04:16:03;;;;;;;16.40;9.05;;;12.80;84.50;;;;;;5101021;27;20042;-80
2023/06/08 04:18:31;;;;;;;18.05;8.98;;;12.80;84.60;;;;;;5133890;27;20039;-80
2023/06/08 04:20:57;;;;;;;16.73;9.30;;;12.90;84.50;;;;;;5117153;27;20556;-80
2023/06/08 04:23:23;;;;;;;17.73;8.93;;;12.90;84.60;;;;;;5133985;27;20126;-79
2023/06/08 04:25:48;;;;;;;13.75;8.52;;;12.90;84.60;;;;;;5099855;27;20130;-79
2023/06/08 04:28:14;;;;;;;18.90;9.82;;;12.90;84.50;;;;;;5118371;27;20406;-80
2023/06/08 04:30:40;;;;;;;13.80;7.70;;;13.00;84.60;;;;;;5100837;27;20035;-80
2023/06/08 04:33:05;;;;;;;16.40;9.02;;;13.00;84.60;;;;;;5118651;27;20042;-80
2023/06/08 04:35:32;;;;;;;14.32;9.07;;;13.00;84.70;;;;;;5117618;27;20043;-80
2023/06/08 04:37:57;;;;;;;13.85;7.43;;;13.00;84.60;;;;;;5096703;28;20444;-80
2023/06/08 04:40:25;;;;;;;20.55;8.20;;;13.00;84.80;;;;;;5096615;28;20027;-81
2023/06/08 04:42:51;;;;;;;13.90;6.45;;;13.00;84.70;;;;;;5108661;27;20428;-82
2023/06/08 04:45:18;;;;;;;14.52;6.60;;;13.00;84.70;;;;;;5105408;28;20043;-81
2023/06/08 04:47:45;;;;;;;17.38;6.95;;;13.00;84.90;;;;;;5120643;27;20128;-81
2023/06/08 04:50:10;;;;;;;16.55;7.40;;;13.00;84.80;;;;;;5106710;28;20042;-81
2023/06/08 04:52:40;;;;;;;15.10;7.05;;;13.10;84.70;;;;;;5089586;28;20099;-81
2023/06/08 04:55:13;;;;;;;15.27;7.72;;;13.10;84.60;;;;;;5087527;27;20076;-78
2023/06/08 04:57:42;;;;;;;15.27;6.10;;;13.20;84.60;;;;;;5106190;28;20032;-79
2023/06/08 05:00:09;;;;;;;15.30;6.43;;;13.30;84.30;;;;;;5086469;28;20023;-79
2023/06/08 05:02:37;;;;;;;16.73;7.13;;;13.30;83.90;;;;;;5116563;28;20027;-79
2023/06/08 05:05:03;;;;;;;15.07;6.45;;;13.30;83.60;;;;;;5090946;28;20043;-79
2023/06/08 05:07:29;;;;;;;16.02;5.43;;;13.30;83.80;;;;;;5116976;28;20043;-78
2023/06/08 05:09:56;;;;;;;16.02;7.15;;;13.40;83.90;;;;;;5100761;28;20399;-79
2023/06/08 05:12:22;;;;;;;11.65;6.50;;;13.50;84.00;;;;;;5098152;28;20502;-78
2023/06/08 05:14:48;;;;;;;15.13;6.15;;;13.50;83.80;;;;;;5106625;28;20157;-78
2023/06/08 05:17:14;;;;;;;15.60;7.35;;;13.50;83.80;;;;;;5083076;28;20054;-78
2023/06/08 05:19:39;;;;;;;12.00;6.07;;;13.60;83.20;;;;;;5125421;28;20039;-78
2023/06/08 05:22:05;;;;;;;13.90;6.50;;;13.60;83.10;;;;;;5104572;28;20027;-79
2023/06/08 05:24:31;;;;;;;18.08;6.93;;;13.70;83.10;;;;;;5098060;28;20392;-79
2023/06/08 05:26:56;;;;;;;12.98;5.60;;;13.70;83.20;;;;;;5096168;28;20065;-79
2023/06/08 05:29:22;;;;;;;15.77;6.15;;;13.70;83.40;;;;;;5095802;28;20089;-78
2023/06/08 05:31:49;;;;;;;12.43;4.90;;;13.80;82.90;;;;;;5095020;28;20550;-77
2023/06/08 05:34:15;;;;;;;16.10;6.50;;;13.70;82.60;;;;;;5095399;28;20051;-78
2023/06/08 05:36:40;;;;;;;14.90;5.80;;;13.70;82.50;;;;;;5078638;28;20043;-77
2023/06/08 05:39:06;;;;;;;12.85;5.63;;;13.70;82.90;;;;;;5095497;28;20036;-78
2023/06/08 05:41:32;;;;;;;15.77;5.97;;;13.80;82.70;;;;;;5062305;28;20032;-77
2023/06/08 05:43:58;;;;;;;16.58;6.38;;;13.90;82.50;;;;;;5095810;28;20445;-78
2023/06/08 05:46:24;;;;;;;12.05;6.45;;;14.00;82.40;;;;;;5095517;28;20039;-78
2023/06/08 05:48:49;;;;;;;19.65;6.13;;;14.00;82.30;;;;;;5095294;28;20092;-78
2023/06/08 05:51:15;;;;;;;14.35;5.72;;;14.00;82.10;;;;;;5095981;28;20032;-79
2023/06/08 05:53:41;;;;;;;12.75;5.95;;;14.00;81.90;;;;;;5116517;28;20040;-80
2023/06/08 05:56:07;;;;;;;10.90;5.75;;;14.00;82.40;;;;;;5117206;28;20193;-80
2023/06/08 05:58:32;;;;;;;13.48;6.45;;;14.00;82.30;;;;;;5099930;28;20039;-80
2023/06/08 06:00:59;;;;;;;16.75;6.75;;;14.10;82.10;;;;;;5114242;27;20066;-80
2023/06/08 06:03:25;;;;;;;14.70;7.07;;;14.20;82.10;;;;;;5104988;27;20088;-79
2023/06/08 06:05:50;;;;;;;15.73;7.20;;;14.20;82.10;;;;;;5138496;27;20039;-79
2023/06/08 06:08:16;;;;;;;13.65;6.72;;;14.30;82.30;;;;;;5120866;27;20085;-80
2023/06/08 06:10:42;;;;;;;18.27;5.80;;;14.50;82.10;;;;;;5119787;27;20490;-78
2023/06/08 06:13:07;;;;;;;13.57;5.90;;;14.50;81.90;;;;;;5102701;27;20043;-79
2023/06/08 06:15:33;;;;;;;14.10;6.57;;;14.50;81.50;;;;;;5136472;27;20046;-79
2023/06/08 06:17:59;;;;;;;11.90;5.95;;;14.50;81.40;;;;;;5085690;27;20104;-79
2023/06/08 06:20:27;;;;;;;13.23;5.93;;;14.50;81.50;;;;;;5137075;27;20041;-79
2023/06/08 06:22:53;;;;;;;15.02;5.70;;;14.50;81.40;;;;;;5120271;27;20046;-81
2023/06/08 06:25:18;;;;;;;10.55;5.53;;;14.50;81.50;;;;;;5110571;27;20027;-81
2023/06/08 06:27:44;;;;;;;14.63;5.43;;;14.60;81.30;;;;;;5145228;27;20031;-80
2023/06/08 06:30:11;;;;;;;17.13;6.10;;;14.70;81.40;;;;;;5128212;27;20022;-80
2023/06/08 06:32:36;;;;;;;15.90;6.13;;;14.80;81.30;;;;;;5128167;27;20049;-80
2023/06/08 06:35:02;;;;;;;13.63;6.20;;;14.90;81.20;;;;;;5145166;27;20023;-81
2023/06/08 06:37:34;;;;;;;11.82;5.75;;;15.00;81.10;;;;;;5111193;27;20027;-80
2023/06/08 06:40:01;;;;;;;10.80;5.88;;;15.10;80.90;;;;;;5145843;27;20064;-82
2023/06/08 06:42:27;;;;;;;11.48;6.53;;;15.20;80.60;;;;;;5128154;27;20091;-80
2023/06/08 06:44:52;;;;;;;14.30;6.35;;;15.20;79.90;;;;;;5144078;27;20051;-81
2023/06/08 06:47:18;;;;;;;17.83;6.60;;;15.20;79.90;;;;;;5124326;27;20041;-81
2023/06/08 06:49:44;;;;;;;15.13;5.90;;;15.20;79.80;;;;;;5144638;27;20023;-80
2023/06/08 06:52:09;;;;;;;17.85;6.50;;;15.20;79.50;;;;;;5127835;27;20023;-80
2023/06/08 06:54:35;;;;;;;11.23;5.50;;;15.20;79.60;;;;;;5110818;27;20015;-79
2023/06/08 06:57:01;;;;;;;17.75;5.70;;;15.20;79.50;;;;;;5105324;27;20043;-78
2023/06/08 06:59:28;;;;;;;14.30;5.50;;;15.10;79.30;;;;;;5137879;27;20039;-78
2023/06/08 07:01:54;;;;;;;17.10;6.57;;;15.10;79.10;;;;;;5104669;27;20039;-79
2023/06/08 07:04:22;;;;;;;16.05;5.30;;;15.10;79.10;;;;;;5126561;27;20074;-79
2023/06/08 07:06:50;;;;;;;19.25;6.38;;;15.20;79.20;;;;;;5102649;27;20054;-79
2023/06/08 07:09:16;;;;;;;10.65;5.63;;;15.20;79.00;;;;;;5136201;27;20402;-80
2023/06/08 07:11:42;;;;;;;18.25;6.00;;;15.20;79.10;;;;;;5103322;27;20364;-79
2023/06/08 07:14:08;;;;;;;18.35;6.32;;;15.30;78.90;;;;;;5118515;27;20042;-79
2023/06/08 07:16:33;;;;;;;14.52;5.20;;;15.40;78.90;;;;;;5084203;27;20058;-78
2023/06/08 07:18:59;;;;;;;14.43;5.40;;;15.50;78.50;;;;;;5117998;27;20047;-79
2023/06/08 07:21:25;;;;;;;16.80;5.45;;;15.50;78.00;;;;;;5118028;27;20045;-79
2023/06/08 07:23:51;;;;;;;14.07;6.00;;;15.60;77.80;;;;;;5135739;27;20130;-78
2023/06/08 07:26:17;;;;;;;10.95;5.38;;;15.70;77.90;;;;;;5100764;27;20474;-79
2023/06/08 07:28:43;;;;;;;12.43;5.50;;;15.80;77.80;;;;;;5117780;27;20035;-79
2023/06/08 07:31:08;;;;;;;9.95;5.15;;;15.90;77.20;;;;;;5117970;27;20043;-80
2023/06/08 07:33:34;;;;;;;14.57;5.90;;;15.90;77.00;;;;;;5083786;27;20493;-80
2023/06/08 07:36:00;;;;;;;12.85;5.82;;;16.00;76.90;;;;;;5083676;27;20042;-80
2023/06/08 07:38:26;;;;;;;13.52;5.20;;;16.00;76.20;;;;;;5101058;27;20035;-79
2023/06/08 07:40:51;;;;;;;14.27;5.90;;;16.10;76.20;;;;;;5083590;27;20505;-80
2023/06/08 07:43:17;;;;;;;15.35;6.00;;;16.10;76.30;;;;;;5117667;27;20062;-80
2023/06/08 07:45:44;;;;;;;12.20;5.60;;;16.20;75.90;;;;;;5117594;27;20082;-79
2023/06/08 07:48:09;;;;;;;13.43;6.18;;;16.30;76.10;;;;;;5100562;27;20103;-80
2023/06/08 07:50:35;;;;;;;14.00;5.85;;;16.40;75.80;;;;;;5100310;27;20035;-79
2023/06/08 07:53:01;;;;;;;13.13;5.32;;;16.50;75.40;;;;;;5099987;27;20039;-79
2023/06/08 07:55:27;;;;;;;12.02;5.60;;;16.50;75.00;;;;;;5116338;27;20043;-79
2023/06/08 07:57:52;;;;;;;11.02;4.88;;;16.50;74.50;;;;;;5116165;27;20031;-79
2023/06/08 08:00:19;;;;;;;13.38;4.97;;;16.60;74.90;;;;;;5117062;27;20050;-80
2023/06/08 08:02:45;;;;;;;11.45;6.03;;;16.60;75.00;;;;;;5117523;27;20129;-80
2023/06/08 08:05:10;;;;;;;12.88;4.70;;;16.70;75.20;;;;;;5100402;27;20463;-80
2023/06/08 08:07:36;;;;;;;11.32;5.57;;;16.80;74.60;;;;;;5116913;27;20050;-79
2023/06/08 08:10:03;;;;;;;11.23;4.78;;;16.90;74.30;;;;;;5134079;27;20087;-80
2023/06/08 08:12:29;;;;;;;11.25;5.60;;;17.00;74.20;;;;;;5099690;27;20131;-81
2023/06/08 08:14:54;;;;;;;12.52;4.70;;;17.00;74.30;;;;;;5132999;27;20486;-81
2023/06/08 08:17:20;;;;;;;19.10;6.85;;;17.20;74.30;;;;;;5133909;27;20138;-81
2023/06/08 08:19:46;;;;;;;11.20;4.47;;;17.30;73.20;;;;;;5117101;27;20039;-84
2023/06/08 08:22:11;;;;;;;11.20;5.07;;;17.30;72.80;;;;;;5083434;27;20039;-81
2023/06/08 08:24:37;;;;;;;8.80;4.53;;;17.20;72.70;;;;;;5116684;28;20035;-83
2023/06/08 08:27:03;;;;;;;16.58;5.32;;;17.10;72.60;;;;;;5119484;27;20095;-81
2023/06/08 08:29:28;;;;;;;11.57;5.18;;;17.10;72.90;;;;;;5099285;27;20125;-82
2023/06/08 08:31:55;;;;;;;13.77;5.53;;;17.20;72.60;;;;;;5133072;27;20078;-79
2023/06/08 08:34:20;;;;;;;11.98;4.85;;;17.30;72.90;;;;;;5115895;27;20050;-81
2023/06/08 08:36:46;;;;;;;9.50;4.88;;;17.40;73.20;;;;;;5116378;27;20039;-80
2023/06/08 08:39:14;;;;;;;12.80;5.72;;;17.50;72.80;;;;;;5099075;27;20070;-82
2023/06/08 08:41:41;;;;;;;12.13;5.85;;;17.50;72.60;;;;;;5116529;27;20031;-80
2023/06/08 08:44:17;;;;;;;14.23;6.07;;;17.60;72.00;;;;;;5116846;27;20046;-79
2023/06/08 08:46:43;;;;;;;11.57;5.25;;;17.60;72.40;;;;;;5133633;27;20471;-78
2023/06/08 08:49:21;;;;;;;12.35;5.55;;;17.80;72.20;;;;;;5133588;27;20372;-77
2023/06/08 08:51:52;;;;;;;11.23;5.15;;;17.80;72.10;;;;;;5132705;27;20043;-79
2023/06/08 08:54:25;;;;;;;18.00;6.35;;;17.90;71.20;;;;;;5132633;27;20039;-78
2023/06/08 08:56:55;;;;;;;12.05;5.45;;;17.90;69.90;;;;;;5132573;27;20046;-78
2023/06/08 08:59:23;;;;;;;12.05;6.15;;;18.00;71.30;;;;;;5133147;27;20091;-78
2023/06/08 09:01:49;;;;;;;13.57;5.43;;;18.10;70.60;;;;;;5132977;27;20121;-77
2023/06/08 09:04:14;;;;;;;12.55;5.93;;;18.10;70.40;;;;;;5132682;27;20531;-80
2023/06/08 09:06:47;;;;;;;15.10;5.50;;;18.20;70.10;;;;;;5098604;28;20050;-79
2023/06/08 09:09:13;;;;;;;10.68;5.45;;;18.10;69.40;;;;;;5115621;28;20045;-78
2023/06/08 09:12:00;;;;;;;12.02;5.80;;;18.10;70.00;;;;;;5115473;28;20035;-80
2023/06/08 09:14:27;;;;;;;16.77;7.15;;;18.20;70.10;;;;;;5132877;28;20399;-77
2023/06/08 09:16:54;;;;;;;13.55;5.53;;;18.20;70.50;;;;;;5098423;28;20051;-78
2023/06/08 09:19:22;;;;;;;13.10;5.18;;;18.30;69.90;;;;;;5115546;28;20047;-77
2023/06/08 09:21:48;;;;;;;9.32;5.35;;;18.40;70.60;;;;;;5115722;28;20039;-78
2023/06/08 09:24:16;;;;;;;8.15;4.40;;;18.50;68.70;;;;;;5115533;28;20045;-78
2023/06/08 09:26:47;;;;;;;15.02;4.88;;;18.50;68.80;;;;;;5099901;27;20104;-78
2023/06/08 09:29:41;;;;;;;15.52;4.57;;;18.50;69.80;;;;;;5136926;27;20066;-79
2023/06/08 09:32:09;;;;;;;10.63;5.00;;;18.70;69.00;;;;;;5136578;27;20035;-80
2023/06/08 09:34:51;;;;;;;12.73;4.43;;;18.70;69.30;;;;;;5119455;27;20039;-79
2023/06/08 09:37:18;;;;;;;9.00;4.40;;;18.90;69.60;;;;;;5136527;27;20038;-78
2023/06/08 09:39:45;;;;;;;9.90;4.25;;;18.90;69.00;;;;;;5136351;27;20050;-77
2023/06/08 09:42:11;;;;;;;10.18;4.70;;;19.00;68.10;;;;;;5085722;27;20039;-77
2023/06/08 09:44:38;;;;;;;10.98;4.30;;;19.00;68.70;;;;;;5136424;27;20053;-76
2023/06/08 09:47:19;;;;;;;9.80;5.03;;;19.10;68.40;;;;;;5119478;27;20051;-77
2023/06/08 09:49:45;;;;;;;10.60;4.28;;;19.30;68.60;;;;;;5119216;27;20041;-79
2023/06/08 09:52:11;;;;;;;9.40;4.38;;;19.30;67.50;;;;;;5136403;27;20039;-79
2023/06/08 09:54:40;;;;;;;9.95;4.63;;;19.40;67.00;;;;;;5118997;27;20074;-78
2023/06/08 09:57:06;;;;;;;10.02;4.60;;;19.40;65.30;;;;;;5102261;27;20031;-78
2023/06/08 09:59:45;;;;;;;8.98;4.50;;;19.40;66.00;;;;;;5119540;27;20409;-78
2023/06/08 10:02:20;;;;;;;11.32;4.30;;;19.40;66.50;;;;;;5118969;27;20100;-79
2023/06/08 10:04:52;;;;;;;11.70;5.60;;;19.50;67.10;;;;;;5135975;27;20074;-79
2023/06/08 10:07:24;;;;;;;8.02;4.57;;;19.60;66.80;;;;;;5118751;27;20031;-82
2023/06/08 10:09:59;;;;;;;8.70;4.68;;;19.70;66.60;;;;;;5118945;27;20424;-80
2023/06/08 10:12:28;;;;;;;6.90;4.57;;;19.80;67.10;;;;;;5118707;27;20123;-80
2023/06/08 10:14:55;;;;;;;12.35;4.97;;;20.00;67.40;;;;;;5135590;27;20039;-81
2023/06/08 10:17:21;;;;;;;9.68;5.18;;;20.20;66.50;;;;;;5118339;27;20134;-83
2023/06/08 10:19:47;;;;;;;9.77;4.60;;;20.30;66.10;;;;;;5118701;27;20066;-80
2023/06/08 10:22:12;;;;;;;12.20;4.80;;;20.50;65.50;;;;;;5084820;27;20475;-80
2023/06/08 10:24:39;;;;;;;11.40;5.55;;;20.60;65.40;;;;;;5101639;27;20039;-80
2023/06/08 10:27:30;;;;;;;10.20;4.80;;;20.70;65.40;;;;;;5101718;27;20118;-80
2023/06/08 10:29:58;;;;;;;11.52;4.45;;;20.90;64.70;;;;;;5106288;27;20191;-80
2023/06/08 10:32:32;;;;;;;9.55;4.35;;;21.00;64.50;;;;;;5135608;27;20096;-81
2023/06/08 10:35:06;;;;;;;11.57;4.63;;;21.10;63.80;;;;;;5118563;27;20376;-82
2023/06/08 10:37:34;;;;;;;12.00;5.18;;;21.20;63.20;;;;;;5135028;27;20039;-80
2023/06/08 10:40:08;;;;;;;13.07;6.25;;;21.20;63.90;;;;;;5118134;27;20035;-80
2023/06/08 10:42:35;;;;;;;10.68;5.28;;;21.40;63.90;;;;;;5118156;27;20035;-82
2023/06/08 10:45:03;;;;;;;11.75;5.97;;;21.50;63.00;;;;;;5118432;27;20058;-80
2023/06/08 10:47:31;;;;;;;10.20;5.50;;;21.50;62.40;;;;;;5118296;27;20250;-80
2023/06/08 10:50:02;;;;;;;12.15;6.20;;;21.60;62.20;;;;;;5135118;27;20050;-80
2023/06/08 10:52:29;;;;;;;15.50;5.78;;;21.70;62.30;;;;;;5084516;27;20498;-80
2023/06/08 10:55:11;;;;;;;12.63;6.38;;;21.80;62.00;;;;;;5117892;27;20479;-80
2023/06/08 10:57:45;;;;;;;12.48;5.80;;;21.90;61.30;;;;;;5117896;27;20118;-79
2023/06/08 11:00:30;;;;;;;11.05;6.45;;;22.00;61.40;;;;;;5117754;27;20505;-80
2023/06/08 11:03:04;;;;;;;8.85;5.82;;;22.10;60.50;;;;;;5117716;27;20042;-80
2023/06/08 11:05:34;;;;;;;12.35;6.43;;;22.20;61.30;;;;;;5117850;27;20087;-82
2023/06/08 11:08:00;;;;;;;11.80;5.50;;;22.40;60.70;;;;;;5135129;27;20050;-81
2023/06/08 11:10:27;;;;;;;12.45;5.50;;;22.40;60.20;;;;;;5117652;27;20039;-81
2023/06/08 11:13:02;;;;;;;9.60;5.05;;;22.50;59.80;;;;;;5134834;27;20049;-81
2023/06/08 11:15:28;;;;;;;12.40;5.28;;;22.60;59.90;;;;;;5134575;27;20031;-81
2023/06/08 11:17:58;;;;;;;8.38;4.55;;;22.70;57.20;;;;;;5117230;27;20054;-81
2023/06/08 11:20:24;;;;;;;9.88;4.97;;;22.60;58.30;;;;;;5100896;27;20039;-80
2023/06/08 11:22:50;;;;;;;8.65;4.70;;;22.60;58.70;;;;;;5134778;27;20058;-79
2023/06/08 11:25:20;;;;;;;10.27;4.97;;;22.80;59.20;;;;;;5117325;27;20487;-80
2023/06/08 11:27:46;;;;;;;8.65;3.97;;;22.90;58.90;;;;;;5100404;27;20043;-80
2023/06/08 11:30:20;;;;;;;9.07;4.10;;;22.90;58.00;;;;;;5134462;27;20050;-80
2023/06/08 11:32:48;;;;;;;9.20;4.28;;;22.90;58.10;;;;;;5117060;27;20068;-79
2023/06/08 11:35:14;;;;;;;8.32;3.38;;;23.00;57.30;;;;;;5134324;27;20058;-80
2023/06/08 11:37:41;;;;;;;10.88;4.00;;;23.00;57.10;;;;;;5117126;27;20039;-80
2023/06/08 11:40:11;;;;;;;9.65;3.45;;;23.00;56.60;;;;;;5134307;27;20097;-80
2023/06/08 11:42:37;;;;;;;8.35;3.38;;;23.00;57.60;;;;;;5134287;27;20119;-80
2023/06/08 11:45:11;;;;;;;8.02;3.70;;;23.10;58.00;;;;;;5133974;27;20483;-81
2023/06/08 11:47:38;;;;;;;8.50;3.53;;;23.00;56.20;;;;;;5116979;27;20126;-80
2023/06/08 11:50:06;;;;;;;8.02;3.03;;;23.30;56.40;;;;;;5116093;27;20043;-81
2023/06/08 11:52:33;;;;;;;10.02;3.47;;;23.30;55.70;;;;;;5134217;27;20081;-80
2023/06/08 11:55:01;;;;;;;8.30;3.58;;;23.30;56.40;;;;;;5117199;27;20040;-79
2023/06/08 11:57:41;;;;;;;8.50;4.07;;;23.30;56.30;;;;;;5116548;27;20031;-80
2023/06/08 12:00:20;;;;;;;7.38;4.03;;;23.40;55.50;;;;;;5116688;27;20483;-81
2023/06/08 12:02:48;;;;;;;8.85;4.25;;;23.30;55.90;;;;;;5133985;27;20375;-80
2023/06/08 12:05:15;;;;;;;8.25;3.67;;;23.40;55.10;;;;;;5116829;27;20441;-81
2023/06/08 12:08:04;;;;;;;13.38;4.95;;;23.40;55.50;;;;;;5116598;27;20055;-80
2023/06/08 12:10:35;;;;;;;6.85;3.58;;;23.50;55.30;;;;;;5133499;27;20487;-80
2023/06/08 12:13:11;;;;;;;8.93;4.25;;;23.50;55.10;;;;;;5116423;27;20503;-79
2023/06/08 12:15:41;;;;;;;9.60;3.83;;;23.60;54.70;;;;;;5133492;27;20047;-80
2023/06/08 12:18:07;;;;;;;7.30;3.47;;;23.50;53.30;;;;;;5116103;27;20126;-80
2023/06/08 12:20:33;;;;;;;8.20;3.92;;;23.40;54.80;;;;;;5116505;27;20130;-80
2023/06/08 12:23:00;;;;;;;10.27;4.45;;;23.40;55.50;;;;;;5110309;28;20400;-79
2023/06/08 12:25:25;;;;;;;12.85;3.95;;;23.50;55.10;;;;;;5111457;28;20096;-81
2023/06/08 12:27:51;;;;;;;8.15;4.25;;;23.60;55.90;;;;;;5111777;28;20051;-80
2023/06/08 12:30:17;;;;;;;11.07;3.85;;;23.70;56.20;;;;;;5129335;27;20039;-80
2023/06/08 12:32:44;;;;;;;7.90;3.78;;;23.80;55.50;;;;;;5112474;28;20035;-82
2023/06/08 12:35:10;;;;;;;7.07;3.20;;;23.90;55.00;;;;;;5097428;27;20043;-81
2023/06/08 12:37:36;;;;;;;6.97;2.92;;;24.10;54.60;;;;;;5099227;27;20050;-81
2023/06/08 12:40:03;;;;;;;8.23;3.65;;;24.20;54.10;;;;;;5082107;27;20419;-80